createdAt,value
2022-11-17T00:02:17.215Z,8.70
2022-11-17T00:04:46.534Z,8.70
2022-11-17T00:07:15.286Z,8.70
2022-11-17T00:09:45.559Z,8.80
2022-11-17T00:12:33.183Z,8.80
2022-11-17T00:15:01.996Z,8.70
2022-11-17T00:17:30.606Z,8.80
2022-11-17T00:20:16.723Z,8.80
2022-11-17T00:22:45.301Z,8.80
2022-11-17T00:25:15.387Z,8.80
2022-11-17T00:27:43.967Z,8.80
2022-11-17T00:30:33.788Z,8.80
2022-11-17T00:33:21.254Z,8.80
2022-11-17T00:35:55.058Z,8.70
2022-11-17T00:38:23.611Z,8.70
2022-11-17T00:40:53.637Z,8.70
2022-11-17T00:43:22.167Z,8.70
2022-11-17T00:45:50.906Z,8.70
2022-11-17T00:48:19.573Z,8.70
2022-11-17T00:50:48.114Z,8.70
2022-11-17T00:53:17.005Z,8.70
2022-11-17T00:55:45.616Z,8.60
2022-11-17T00:58:15.659Z,8.70
2022-11-17T01:00:44.187Z,8.70
2022-11-17T01:03:12.757Z,8.60
2022-11-17T01:05:41.400Z,8.60
2022-11-17T01:08:09.994Z,8.60
2022-11-17T01:10:38.531Z,8.60
2022-11-17T01:13:07.090Z,8.70
2022-11-17T01:15:37.243Z,8.60
2022-11-17T01:18:06.041Z,8.60
2022-11-17T01:20:35.232Z,8.60
2022-11-17T01:23:03.835Z,8.60
2022-11-17T01:25:32.989Z,8.60
2022-11-17T01:28:01.553Z,8.60
2022-11-17T01:30:30.152Z,8.60
2022-11-17T01:33:00.135Z,8.60
2022-11-17T01:35:28.697Z,8.60
2022-11-17T01:37:57.235Z,8.60
2022-11-17T01:40:25.831Z,8.60
2022-11-17T01:42:54.455Z,8.60
2022-11-17T01:45:27.215Z,8.60
2022-11-17T01:48:00.936Z,8.60
2022-11-17T01:50:35.671Z,8.60
2022-11-17T01:53:10.241Z,8.60
2022-11-17T01:55:45.377Z,8.70
2022-11-17T01:58:20.014Z,8.70
2022-11-17T02:00:49.255Z,8.70
2022-11-17T02:03:19.587Z,8.60
2022-11-17T02:05:57.631Z,8.60
2022-11-17T02:08:31.822Z,8.60
2022-11-17T02:11:05.299Z,8.60
2022-11-17T02:13:37.990Z,8.60
2022-11-17T02:16:12.004Z,8.60
2022-11-17T02:18:43.602Z,8.60
2022-11-17T02:22:02.936Z,8.60
2022-11-17T02:25:06.193Z,8.60
2022-11-17T02:27:57.706Z,8.60
2022-11-17T02:30:35.978Z,8.70
2022-11-17T02:33:14.086Z,8.70
2022-11-17T02:35:53.440Z,8.60
2022-11-17T02:38:34.293Z,8.70
2022-11-17T02:41:11.703Z,8.70
2022-11-17T02:44:04.650Z,8.70
2022-11-17T02:46:45.467Z,8.70
2022-11-17T02:49:21.986Z,8.70
2022-11-17T02:51:55.071Z,8.70
2022-11-17T02:54:26.126Z,8.70
2022-11-17T02:56:55.417Z,8.70
2022-11-17T02:59:31.838Z,8.70
2022-11-17T03:02:34.607Z,8.70
2022-11-17T03:05:13.812Z,8.70
2022-11-17T03:07:58.070Z,8.70
2022-11-17T03:10:39.905Z,8.70
2022-11-17T03:13:16.754Z,8.60
2022-11-17T03:15:54.948Z,8.60
2022-11-17T03:18:31.817Z,8.50
2022-11-17T03:21:20.229Z,8.50
2022-11-17T03:23:56.886Z,8.50
2022-11-17T03:26:31.887Z,8.50
2022-11-17T03:29:02.914Z,8.50
2022-11-17T03:31:36.347Z,8.50
2022-11-17T03:34:11.252Z,8.50
2022-11-17T03:36:46.854Z,8.60
2022-11-17T03:39:24.986Z,8.50
2022-11-17T03:42:01.058Z,8.60
2022-11-17T03:44:35.043Z,8.60
2022-11-17T03:47:07.909Z,8.60
2022-11-17T03:49:44.530Z,8.60
2022-11-17T03:52:13.571Z,8.60
2022-11-17T03:54:43.284Z,8.50
2022-11-17T03:57:19.497Z,8.60
2022-11-17T03:59:57.882Z,8.50
2022-11-17T04:02:29.286Z,8.60
2022-11-17T04:05:07.057Z,8.60
2022-11-17T04:07:38.038Z,8.60
2022-11-17T04:10:08.775Z,8.60
2022-11-17T04:12:57.506Z,8.60
2022-11-17T04:15:44.474Z,8.60
2022-11-17T04:18:15.096Z,8.60
2022-11-17T04:20:43.937Z,8.60
2022-11-17T04:23:16.059Z,8.60
2022-11-17T04:26:04.995Z,8.60
2022-11-17T04:28:38.832Z,8.50
2022-11-17T04:31:11.042Z,8.60
2022-11-17T04:33:43.430Z,8.60
2022-11-17T04:36:15.623Z,8.60
2022-11-17T04:38:46.163Z,8.60
2022-11-17T04:41:34.216Z,8.60
2022-11-17T04:44:04.356Z,8.60
2022-11-17T04:46:34.849Z,8.60
2022-11-17T04:49:05.736Z,8.60
2022-11-17T04:51:35.707Z,8.70
2022-11-17T04:54:06.518Z,8.60
2022-11-17T04:56:35.218Z,8.60
2022-11-17T04:59:03.837Z,8.60
2022-11-17T05:01:32.945Z,8.70
2022-11-17T05:04:05.942Z,8.70
2022-11-17T05:06:37.587Z,8.70
2022-11-17T05:09:10.091Z,8.70
2022-11-17T05:11:56.000Z,8.60
2022-11-17T05:14:27.336Z,8.60
2022-11-17T05:17:11.518Z,8.60
2022-11-17T05:19:44.482Z,8.60
2022-11-17T05:22:32.577Z,8.60
2022-11-17T05:25:01.639Z,8.60
2022-11-17T05:27:30.320Z,8.60
2022-11-17T05:29:58.866Z,8.70
2022-11-17T05:32:27.555Z,8.70
2022-11-17T05:34:57.664Z,8.70
2022-11-17T05:37:26.337Z,8.70
2022-11-17T05:39:54.870Z,8.70
2022-11-17T05:42:23.460Z,8.70
2022-11-17T05:44:52.002Z,8.60
2022-11-17T05:47:20.561Z,8.70
2022-11-17T05:49:49.257Z,8.70
2022-11-17T05:52:19.231Z,8.60
2022-11-17T05:54:47.795Z,8.50
2022-11-17T05:57:25.764Z,8.50
2022-11-17T06:00:00.123Z,8.50
2022-11-17T06:02:36.694Z,8.50
2022-11-17T06:05:06.069Z,8.50
2022-11-17T06:07:37.795Z,8.60
2022-11-17T06:10:07.798Z,8.60
2022-11-17T06:12:36.360Z,8.60
2022-11-17T06:15:06.081Z,8.60
2022-11-17T06:17:39.911Z,8.70
2022-11-17T06:20:16.339Z,8.70
2022-11-17T06:22:48.609Z,8.70
2022-11-17T06:25:20.746Z,8.70
2022-11-17T06:27:52.555Z,8.70
2022-11-17T06:30:21.486Z,8.70
2022-11-17T06:32:51.571Z,8.80
2022-11-17T06:35:20.405Z,8.80
2022-11-17T06:37:50.389Z,8.70
2022-11-17T06:40:19.237Z,8.60
2022-11-17T06:43:08.564Z,8.70
2022-11-17T06:45:39.603Z,8.80
2022-11-17T06:48:10.293Z,8.80
2022-11-17T06:50:38.882Z,8.80
2022-11-17T06:53:11.901Z,8.80
2022-11-17T06:55:40.621Z,8.80
2022-11-17T06:58:12.461Z,8.80
2022-11-17T07:00:41.209Z,8.90
2022-11-17T07:03:11.967Z,8.90
2022-11-17T07:05:41.006Z,9.00
2022-11-17T07:08:11.491Z,9.00
2022-11-17T07:10:44.975Z,9.00
2022-11-17T07:13:16.784Z,9.10
2022-11-17T07:15:45.440Z,9.10
2022-11-17T07:18:14.184Z,9.10
2022-11-17T07:20:43.154Z,9.10
2022-11-17T07:23:13.334Z,9.20
2022-11-17T07:25:42.321Z,9.20
2022-11-17T07:28:11.092Z,9.20
2022-11-17T07:30:39.738Z,9.20
2022-11-17T07:33:09.141Z,9.30
2022-11-17T07:35:38.258Z,9.30
2022-11-17T07:38:07.001Z,9.30
2022-11-17T07:40:37.152Z,9.40
2022-11-17T07:43:05.914Z,9.40
2022-11-17T07:45:34.529Z,9.40
2022-11-17T07:48:06.006Z,9.40
2022-11-17T07:50:37.100Z,9.40
2022-11-17T07:53:05.678Z,9.40
2022-11-17T07:55:34.536Z,9.50
2022-11-17T07:58:04.638Z,9.50
2022-11-17T08:00:34.856Z,9.50
2022-11-17T08:03:04.831Z,9.60
2022-11-17T08:05:41.679Z,9.80
2022-11-17T08:08:13.705Z,10.00
2022-11-17T08:10:43.151Z,10.20
2022-11-17T08:13:15.511Z,10.50
2022-11-17T08:15:44.172Z,10.70
2022-11-17T08:18:13.174Z,11.00
2022-11-17T08:20:41.878Z,11.20
2022-11-17T08:23:13.129Z,11.20
2022-11-17T08:25:41.996Z,11.10
2022-11-17T08:32:38.914Z,10.90
2022-11-17T08:35:10.263Z,11.50
2022-11-17T08:37:42.138Z,11.90
2022-11-17T08:40:12.709Z,12.10
2022-11-17T08:42:41.339Z,12.10
2022-11-17T08:45:11.950Z,12.40
2022-11-17T08:47:42.338Z,12.70
2022-11-17T08:50:11.393Z,12.80
2022-11-17T08:52:40.016Z,12.70
2022-11-17T08:55:09.672Z,12.90
2022-11-17T08:57:38.816Z,13.50
2022-11-17T09:00:09.783Z,14.00
2022-11-17T09:02:39.366Z,13.80
2022-11-17T09:05:10.930Z,13.50
2022-11-17T09:07:39.805Z,13.40
2022-11-17T09:10:11.225Z,14.10
2022-11-17T09:12:39.936Z,14.40
2022-11-17T09:15:10.220Z,14.50
2022-11-17T09:17:40.450Z,15.00
2022-11-17T09:20:12.028Z,15.90
2022-11-17T09:22:40.654Z,16.10
2022-11-17T09:25:13.582Z,16.10
2022-11-17T09:27:42.835Z,15.50
2022-11-17T09:30:12.767Z,15.00
2022-11-17T09:32:41.322Z,15.10
2022-11-17T09:35:11.515Z,15.40
2022-11-17T09:37:40.064Z,15.30
2022-11-17T09:40:14.302Z,14.90
2022-11-17T09:42:43.355Z,15.00
2022-11-17T09:45:21.063Z,15.50
2022-11-17T09:48:12.366Z,15.50
2022-11-17T09:50:52.071Z,15.40
2022-11-17T09:53:28.276Z,15.50
2022-11-17T09:56:02.430Z,15.30
2022-11-17T09:58:39.163Z,15.40
2022-11-17T10:01:12.883Z,15.30
2022-11-17T10:03:46.356Z,15.10
2022-11-17T10:06:21.946Z,14.90
2022-11-17T10:09:01.473Z,14.70
2022-11-17T10:11:33.264Z,14.50
2022-11-17T10:14:12.657Z,14.20
2022-11-17T10:16:45.836Z,13.90
2022-11-17T10:19:21.358Z,13.70
2022-11-17T10:21:57.943Z,13.50
2022-11-17T10:24:39.470Z,13.50
2022-11-17T10:27:26.431Z,13.50
2022-11-17T10:30:01.438Z,13.30
2022-11-17T10:32:33.963Z,13.00
2022-11-17T10:35:25.072Z,12.90
2022-11-17T10:37:59.113Z,12.80
2022-11-17T10:40:31.736Z,12.70
2022-11-17T10:44:21.560Z,12.70
2022-11-17T10:51:44.660Z,12.50
2022-11-17T10:54:23.648Z,12.50
2022-11-17T10:56:56.739Z,12.70
2022-11-17T10:59:31.085Z,12.80
2022-11-17T11:02:20.078Z,12.90
2022-11-17T11:04:49.134Z,12.80
2022-11-17T11:07:24.294Z,12.70
2022-11-17T11:10:04.200Z,12.60
2022-11-17T11:12:42.560Z,12.50
2022-11-17T11:15:20.620Z,12.20
2022-11-17T11:17:49.862Z,12.10
2022-11-17T11:20:22.854Z,12.00
2022-11-17T11:23:00.133Z,12.00
2022-11-17T11:25:42.414Z,12.00
2022-11-17T11:28:34.251Z,12.30
2022-11-17T11:31:16.065Z,12.40
2022-11-17T11:33:55.058Z,12.40
2022-11-17T11:36:37.300Z,12.30
2022-11-17T11:39:19.721Z,12.40
2022-11-17T11:42:38.443Z,12.50
2022-11-17T11:45:28.942Z,12.20
2022-11-17T11:48:20.022Z,12.00
2022-11-17T11:50:59.241Z,11.90
2022-11-17T11:53:43.102Z,12.20
2022-11-17T11:56:20.122Z,12.20
2022-11-17T11:59:02.044Z,11.90
2022-11-17T12:01:49.729Z,11.80
2022-11-17T12:04:31.614Z,11.80
2022-11-17T12:07:14.106Z,11.80
2022-11-17T12:09:58.797Z,11.60
2022-11-17T12:12:33.448Z,11.50
2022-11-17T12:15:33.098Z,11.60
2022-11-17T12:18:06.351Z,11.50
2022-11-17T12:20:58.943Z,11.60
2022-11-17T12:24:11.545Z,11.90
2022-11-17T12:26:40.822Z,12.10
2022-11-17T12:29:47.278Z,12.30
2022-11-17T12:32:55.504Z,12.30
2022-11-17T12:35:28.446Z,12.20
2022-11-17T12:38:43.276Z,12.20
2022-11-17T12:41:11.909Z,12.20
2022-11-17T12:43:40.583Z,12.20
2022-11-17T12:46:24.452Z,12.20
2022-11-17T12:49:08.236Z,12.10
2022-11-17T12:51:52.547Z,12.20
2022-11-17T12:54:29.325Z,12.10
2022-11-17T12:57:09.914Z,12.10
2022-11-17T13:00:07.780Z,12.00
2022-11-17T13:03:06.704Z,12.00
2022-11-17T13:05:38.334Z,11.90
2022-11-17T13:08:23.171Z,11.90
2022-11-17T13:10:53.347Z,11.80
2022-11-17T13:13:25.533Z,11.70
2022-11-17T13:15:58.905Z,11.60
2022-11-17T13:18:34.617Z,11.50
2022-11-17T13:21:06.223Z,11.50
2022-11-17T13:23:35.962Z,11.60
2022-11-17T13:26:12.819Z,11.60
2022-11-17T13:28:42.222Z,11.60
2022-11-17T13:31:18.703Z,11.60
2022-11-17T13:34:00.916Z,11.60
2022-11-17T13:36:33.571Z,11.50
2022-11-17T13:39:03.354Z,11.50
2022-11-17T13:41:40.630Z,11.40
2022-11-17T13:44:15.186Z,11.40
2022-11-17T13:46:44.303Z,11.40
2022-11-17T13:49:37.619Z,11.70
2022-11-17T13:52:40.415Z,11.50
2022-11-17T13:55:20.453Z,11.50
2022-11-17T13:57:57.565Z,11.40
2022-11-17T14:00:26.656Z,11.40
2022-11-17T14:02:58.395Z,11.40
2022-11-17T14:05:29.840Z,11.40
2022-11-17T14:08:13.326Z,11.40
2022-11-17T14:10:42.850Z,11.40
2022-11-17T14:14:01.131Z,11.40
2022-11-17T14:17:09.622Z,11.30
2022-11-17T14:20:22.365Z,11.10
2022-11-17T14:23:19.024Z,11.10
2022-11-17T14:25:50.285Z,11.10
2022-11-17T14:28:22.909Z,11.10
2022-11-17T14:30:53.975Z,11.00
2022-11-17T14:33:23.530Z,11.00
2022-11-17T14:44:57.598Z,11.00
2022-11-17T14:52:11.996Z,10.90
2022-11-17T14:54:43.326Z,10.70
2022-11-17T14:57:12.275Z,10.70
2022-11-17T15:00:22.450Z,10.60
2022-11-17T15:04:49.400Z,10.60
2022-11-17T15:25:40.039Z,10.00
2022-11-17T15:28:12.676Z,9.80
2022-11-17T15:30:44.416Z,9.80
2022-11-17T15:33:42.163Z,9.90
2022-11-17T15:36:54.773Z,10.00
2022-11-17T15:40:35.774Z,9.90
2022-11-17T15:43:31.499Z,9.80
2022-11-17T15:46:07.073Z,9.90
2022-11-17T15:48:38.981Z,9.90
2022-11-17T15:51:09.124Z,9.80
2022-11-17T15:53:39.777Z,9.80
2022-11-17T15:56:11.506Z,9.80
2022-11-17T15:58:41.928Z,9.80
2022-11-17T16:01:17.769Z,9.70
2022-11-17T16:03:47.529Z,9.70
2022-11-17T16:06:16.509Z,9.80
2022-11-17T16:08:45.486Z,9.80
2022-11-17T16:11:15.029Z,9.80
2022-11-17T16:13:43.735Z,9.80
2022-11-17T16:16:16.637Z,9.80
2022-11-17T16:18:45.265Z,9.80
2022-11-17T16:21:16.037Z,9.80
2022-11-17T16:23:46.925Z,9.90
2022-11-17T16:26:18.233Z,9.90
2022-11-17T16:28:48.045Z,9.80
2022-11-17T16:31:22.108Z,9.80
2022-11-17T16:33:52.902Z,10.00
2022-11-17T16:36:24.908Z,10.00
2022-11-17T16:39:00.910Z,10.10
2022-11-17T16:41:33.447Z,10.00
2022-11-17T16:44:03.068Z,10.00
2022-11-17T16:46:33.403Z,10.00
2022-11-17T16:49:05.516Z,10.00
2022-11-17T16:51:35.219Z,10.00
2022-11-17T16:54:06.592Z,9.90
2022-11-17T16:56:36.007Z,9.80
2022-11-17T16:59:04.930Z,9.70
2022-11-17T17:01:35.558Z,9.80
2022-11-17T17:04:07.637Z,9.80
2022-11-17T17:06:38.484Z,9.90
2022-11-17T17:09:12.527Z,9.80
2022-11-17T17:11:42.106Z,9.90
2022-11-17T17:14:15.431Z,9.80
2022-11-17T17:16:45.420Z,9.90
2022-11-17T17:19:16.688Z,9.90
2022-11-17T17:21:46.087Z,9.80
2022-11-17T17:24:15.313Z,9.60
2022-11-17T17:26:44.086Z,9.70
2022-11-17T17:29:15.367Z,9.80
2022-11-17T17:31:45.596Z,9.70
2022-11-17T17:34:14.795Z,9.70
2022-11-17T17:36:44.014Z,9.60
2022-11-17T17:39:16.789Z,9.70
2022-11-17T17:41:46.292Z,9.70
2022-11-17T17:44:17.971Z,9.70
2022-11-17T17:46:48.788Z,9.60
2022-11-17T17:49:19.097Z,9.70
2022-11-17T17:51:48.214Z,9.60
2022-11-17T17:54:19.980Z,9.70
2022-11-17T17:56:49.339Z,9.70
2022-11-17T17:59:19.163Z,9.60
2022-11-17T18:01:49.800Z,9.60
2022-11-17T18:04:18.380Z,9.60
2022-11-17T18:06:48.809Z,9.50
2022-11-17T18:09:20.436Z,9.50
2022-11-17T18:11:51.282Z,9.60
2022-11-17T18:14:24.549Z,9.60
2022-11-17T18:16:55.986Z,9.60
2022-11-17T18:19:29.749Z,9.60
2022-11-17T18:22:01.517Z,9.60
2022-11-17T18:24:30.083Z,9.60
2022-11-17T18:26:58.739Z,9.60
2022-11-17T18:29:27.405Z,9.60
2022-11-17T18:31:57.410Z,9.40
2022-11-17T18:34:26.928Z,9.40
2022-11-17T18:36:57.202Z,9.40
2022-11-17T18:39:27.504Z,9.50
2022-11-17T18:41:56.236Z,9.40
2022-11-17T18:44:24.810Z,9.30
2022-11-17T18:46:55.031Z,9.30
2022-11-17T18:49:28.245Z,9.40
2022-11-17T18:51:56.803Z,9.40
2022-11-17T18:54:25.473Z,9.50
2022-11-17T18:56:54.199Z,9.50
2022-11-17T18:59:22.770Z,9.40
2022-11-17T19:01:51.806Z,9.40
2022-11-17T19:04:20.538Z,9.40
2022-11-17T19:06:51.256Z,9.30
2022-11-17T19:09:20.168Z,9.20
2022-11-17T19:11:48.868Z,9.20
2022-11-17T19:14:17.467Z,9.10
2022-11-17T19:16:46.289Z,9.10
2022-11-17T19:19:15.743Z,9.00
2022-11-17T19:21:45.220Z,9.00
2022-11-17T19:24:15.798Z,9.00
2022-11-17T19:26:45.862Z,9.00
2022-11-17T19:29:17.418Z,9.10
2022-11-17T19:31:48.019Z,9.00
2022-11-17T19:34:17.406Z,9.10
2022-11-17T19:36:46.350Z,9.00
2022-11-17T19:39:17.268Z,9.00
2022-11-17T19:41:47.917Z,9.00
2022-11-17T19:44:16.659Z,9.00
2022-11-17T19:46:45.338Z,9.00
2022-11-17T19:49:14.427Z,9.00
2022-11-17T19:51:43.286Z,8.90
2022-11-17T19:54:13.531Z,8.90
2022-11-17T19:56:43.860Z,8.90
2022-11-17T19:59:16.071Z,8.90
2022-11-17T20:01:45.981Z,8.90
2022-11-17T20:04:14.750Z,8.90
2022-11-17T20:06:43.475Z,8.80
2022-11-17T20:09:15.538Z,8.80
2022-11-17T20:11:45.752Z,8.80
2022-11-17T20:14:15.423Z,8.80
2022-11-17T20:16:44.138Z,8.80
2022-11-17T20:19:13.891Z,8.70
2022-11-17T20:21:42.779Z,8.70
2022-11-17T20:24:11.654Z,8.70
2022-11-17T20:26:43.126Z,8.70
2022-11-17T20:29:13.166Z,8.70
2022-11-17T20:31:42.575Z,8.60
2022-11-17T20:34:14.225Z,8.60
2022-11-17T20:36:42.779Z,8.50
2022-11-17T20:39:11.575Z,8.50
2022-11-17T20:41:40.197Z,8.50
2022-11-17T20:44:23.981Z,8.50
2022-11-17T20:46:56.173Z,8.40
2022-11-17T20:49:25.478Z,8.30
2022-11-17T20:51:54.481Z,8.30
2022-11-17T20:54:23.060Z,8.30
2022-11-17T20:56:51.626Z,8.40
2022-11-17T20:59:20.581Z,8.40
2022-11-17T21:01:50.663Z,8.30
2022-11-17T21:04:20.720Z,8.30
2022-11-17T21:06:49.264Z,8.20
2022-11-17T21:09:18.328Z,8.20
2022-11-17T21:11:59.383Z,8.10
2022-11-17T21:14:30.500Z,8.00
2022-11-17T21:17:00.878Z,8.00
2022-11-17T21:19:34.261Z,8.00
2022-11-17T21:22:06.493Z,8.00
2022-11-17T21:24:35.125Z,8.00
2022-11-17T21:27:03.661Z,7.90
2022-11-17T21:29:33.080Z,7.90
2022-11-17T21:32:01.706Z,7.80
2022-11-17T21:34:31.682Z,7.80
2022-11-17T21:37:00.519Z,7.90
2022-11-17T21:39:29.059Z,7.80
2022-11-17T21:41:57.720Z,7.70
2022-11-17T21:44:26.285Z,7.60
2022-11-17T21:46:54.893Z,7.60
2022-11-17T21:49:23.568Z,7.60
2022-11-17T21:51:53.565Z,7.60
2022-11-17T21:54:22.209Z,7.60
2022-11-17T21:56:50.790Z,7.60
2022-11-17T21:59:19.624Z,7.60
2022-11-17T22:01:48.439Z,7.50
2022-11-17T22:04:17.125Z,7.60
2022-11-17T22:06:46.012Z,7.60
2022-11-17T22:09:16.563Z,7.60
2022-11-17T22:11:45.393Z,7.70
2022-11-17T22:14:15.920Z,7.70
2022-11-17T22:16:46.611Z,7.70
2022-11-17T22:19:17.948Z,7.70
2022-11-17T22:21:49.588Z,7.60
2022-11-17T22:24:20.173Z,7.60
2022-11-17T22:26:49.383Z,7.60
2022-11-17T22:29:21.132Z,7.70
2022-11-17T22:31:50.722Z,7.70
2022-11-17T22:34:20.230Z,7.70
2022-11-17T22:36:53.722Z,7.70
2022-11-17T22:39:33.403Z,7.70
2022-11-17T22:42:02.192Z,7.60
2022-11-17T22:44:30.824Z,7.60
2022-11-17T22:46:59.455Z,7.70
2022-11-17T22:49:28.074Z,7.80
2022-11-17T22:52:07.304Z,7.80
2022-11-17T22:54:37.393Z,7.80
2022-11-17T22:57:06.018Z,7.80
2022-11-17T22:59:34.561Z,7.70
2022-11-17T23:02:03.212Z,7.80
2022-11-17T23:04:31.750Z,7.60
2022-11-17T23:07:00.554Z,7.70
2022-11-17T23:09:29.179Z,7.70
2022-11-17T23:11:59.117Z,7.70
2022-11-17T23:14:28.048Z,7.80
2022-11-17T23:16:56.578Z,7.90
2022-11-17T23:19:25.405Z,8.00
2022-11-17T23:21:53.901Z,8.00
2022-11-17T23:24:22.599Z,7.90
2022-11-17T23:26:51.216Z,7.80
2022-11-17T23:29:21.456Z,7.90
2022-11-17T23:31:50.278Z,7.90
2022-11-17T23:34:19.183Z,7.90
2022-11-17T23:36:50.538Z,7.90
2022-11-17T23:39:19.362Z,7.90
2022-11-17T23:41:48.066Z,8.00
2022-11-17T23:44:16.712Z,8.00
2022-11-17T23:46:46.726Z,8.00
2022-11-17T23:49:15.587Z,8.00
2022-11-17T23:51:44.473Z,8.00
2022-11-17T23:54:13.615Z,8.00
2022-11-17T23:56:43.351Z,8.00
2022-11-17T23:59:12.121Z,8.00
